Time;durP1;ratioP1;P1;durP2;ratioP2;P2;SDS_P1;SDS_P2;PMS_P1;PMS_P2;Temp;Humidity;BMP_temperature;BMP_pressure;BME280_temperature;BME280_humidity;BME280_pressure;Samples;Min_cycle;Max_cycle;Signal;HPM_P1;HPM_P2
2021/03/17 00:00:44;;;;;;;49.22;24.00;;;;;;;2.06;81.83;98451.06;3554640;27;20070;-58
2021/03/17 00:02:25;;;;;;;46.57;24.47;;;;;;;2.07;82.27;98446.81;3551309;27;20310;-57
2021/03/17 00:04:07;;;;;;;51.15;23.48;;;;;;;2.06;82.37;98452.72;3552725;27;20283;-57
2021/03/17 00:05:48;;;;;;;48.85;25.13;;;;;;;2.06;82.62;98439.94;3552985;27;20046;-58
2021/03/17 00:07:30;;;;;;;49.75;24.63;;;;;;;2.06;82.30;98445.94;3551095;27;20070;-57
2021/03/17 00:09:11;;;;;;;45.50;25.23;;;;;;;2.06;82.41;98445.94;3554468;27;20059;-57
2021/03/17 00:10:54;;;;;;;38.53;21.08;;;;;;;2.06;82.40;98448.50;3553194;27;20502;-58
2021/03/17 00:12:36;;;;;;;43.03;22.77;;;;;;;2.05;82.10;98443.34;3554440;27;20051;-58
2021/03/17 00:14:17;;;;;;;40.83;20.88;;;;;;;2.06;82.12;98445.06;3549929;27;20487;-58
2021/03/17 00:16:00;;;;;;;43.97;21.92;;;;;;;2.05;81.86;98445.91;3552562;27;20055;-57
2021/03/17 00:17:41;;;;;;;43.72;21.98;;;;;;;2.05;82.01;98443.34;3552806;27;20055;-57
2021/03/17 00:19:23;;;;;;;38.72;20.77;;;;;;;2.05;82.06;98436.53;3551411;27;20042;-57
2021/03/17 00:21:05;;;;;;;40.95;21.65;;;;;;;2.05;81.70;98433.97;3553982;27;20418;-57
2021/03/17 00:22:46;;;;;;;37.15;20.38;;;;;;;2.07;82.08;98436.56;3551074;27;20107;-57
2021/03/17 00:24:28;;;;;;;41.55;22.85;;;;;;;2.06;81.95;98440.84;3554623;27;20042;-57
2021/03/17 00:26:09;;;;;;;40.85;21.25;;;;;;;2.06;81.96;98434.81;3550533;27;20058;-57
2021/03/17 00:27:50;;;;;;;43.65;21.42;;;;;;;2.06;81.62;98434.81;3552540;27;20074;-57
2021/03/17 00:29:32;;;;;;;38.33;21.23;;;;;;;2.03;81.48;98438.19;3554620;27;20049;-58
2021/03/17 00:31:14;;;;;;;37.55;20.50;;;;;;;2.04;81.57;98434.81;3550720;27;20454;-58
2021/03/17 00:32:56;;;;;;;39.50;19.42;;;;;;;2.03;81.36;98433.06;3554271;27;20115;-58
2021/03/17 00:34:39;;;;;;;42.78;21.35;;;;;;;2.04;81.48;98441.59;3550785;27;20043;-58
2021/03/17 00:36:20;;;;;;;36.00;19.35;;;;;;;2.03;81.64;98427.09;3554276;27;20082;-58
2021/03/17 00:38:02;;;;;;;38.92;20.63;;;;;;;2.02;81.67;98431.31;3550670;27;20495;-58
2021/03/17 00:39:44;;;;;;;40.22;20.40;;;;;;;2.02;81.94;98439.00;3551988;27;20107;-58
2021/03/17 00:41:25;;;;;;;43.10;20.83;;;;;;;2.02;81.59;98440.69;3551377;27;20054;-57
2021/03/17 00:43:06;;;;;;;37.50;20.20;;;;;;;2.01;81.74;98441.53;3551877;27;20050;-58
2021/03/17 00:44:48;;;;;;;38.22;21.65;;;;;;;2.01;82.08;98442.38;3554251;27;20043;-58
2021/03/17 00:46:30;;;;;;;48.72;21.75;;;;;;;2.02;81.78;98435.56;3550247;27;20428;-58
2021/03/17 00:48:11;;;;;;;40.83;21.40;;;;;;;2.03;81.74;98443.28;3554129;27;20065;-58
2021/03/17 00:49:52;;;;;;;43.92;22.90;;;;;;;2.01;81.91;98444.09;3550839;27;20046;-58
2021/03/17 00:51:34;;;;;;;39.40;21.50;;;;;;;2.00;82.01;98440.66;3551762;27;20495;-58
2021/03/17 00:53:15;;;;;;;35.67;20.95;;;;;;;2.00;81.93;98435.53;3552444;27;20047;-57
2021/03/17 00:54:57;;;;;;;39.53;21.60;;;;;;;2.00;82.10;98438.09;3552985;27;20046;-57
2021/03/17 00:56:38;;;;;;;41.35;22.73;;;;;;;2.00;81.94;98440.66;3554018;27;20047;-58
2021/03/17 00:58:20;;;;;;;36.38;21.35;;;;;;;1.99;82.12;98433.81;3550514;27;20076;-58
2021/03/17 01:00:01;;;;;;;41.75;21.23;;;;;;;2.00;82.17;98434.66;3553498;27;20147;-58
2021/03/17 01:01:43;;;;;;;41.45;20.63;;;;;;;2.00;82.04;98435.53;3550625;27;20051;-58
2021/03/17 01:03:25;;;;;;;41.22;21.95;;;;;;;2.00;82.11;98424.44;3551619;27;20039;-58
2021/03/17 01:05:07;;;;;;;39.08;20.75;;;;;;;1.99;82.26;98423.59;3551814;27;20092;-58
2021/03/17 01:06:49;;;;;;;33.47;18.40;;;;;;;1.98;82.05;98426.09;3550409;27;20057;-58
2021/03/17 01:08:30;;;;;;;33.00;18.00;;;;;;;1.97;81.75;98427.78;3553931;27;20047;-58
2021/03/17 01:10:15;;;;;;;35.38;18.58;;;;;;;1.97;81.81;98422.69;3550579;27;20045;-58
2021/03/17 01:11:56;;;;;;;32.38;18.25;;;;;;;1.97;81.98;98426.91;3553394;27;20043;-58
2021/03/17 01:13:55;;;;;;;31.50;17.95;;;;;;;1.96;81.69;98422.63;3552522;27;20054;-58
2021/03/17 01:15:37;;;;;;;33.00;17.77;;;;;;;1.96;81.57;98428.59;3552754;27;20039;-58
2021/03/17 01:17:19;;;;;;;32.95;18.42;;;;;;;1.96;81.70;98431.16;3553875;27;20047;-58
2021/03/17 01:19:01;;;;;;;41.75;19.45;;;;;;;1.96;81.44;98433.72;3550397;27;20053;-58
2021/03/17 01:20:42;;;;;;;39.90;17.92;;;;;;;1.96;81.52;98425.19;3553442;27;20046;-58
2021/03/17 01:22:24;;;;;;;37.05;18.17;;;;;;;1.96;81.84;98430.31;3551626;27;20530;-57
2021/03/17 01:24:06;;;;;;;36.38;19.77;;;;;;;1.94;81.60;98426.00;3551333;27;20045;-58
2021/03/17 01:25:48;;;;;;;44.15;21.92;;;;;;;1.94;81.65;98425.16;3553138;27;20047;-57
2021/03/17 01:27:29;;;;;;;33.55;18.70;;;;;;;1.93;81.99;98424.25;3552358;27;20054;-58
2021/03/17 01:29:10;;;;;;;37.85;19.23;;;;;;;1.93;81.80;98421.69;3553918;27;20054;-58
2021/03/17 01:30:55;;;;;;;32.40;17.67;;;;;;;1.93;82.00;98425.97;3551371;27;20054;-58
2021/03/17 01:32:37;;;;;;;34.15;18.08;;;;;;;1.92;82.00;98424.25;3551636;27;20495;-58
2021/03/17 01:34:19;;;;;;;32.38;17.33;;;;;;;1.92;82.00;98414.88;3552250;27;20047;-58
2021/03/17 01:36:00;;;;;;;32.65;17.75;;;;;;;1.93;82.02;98419.16;3550732;27;20086;-58
2021/03/17 01:37:41;;;;;;;37.85;18.30;;;;;;;1.92;82.62;98419.13;3553140;27;20050;-58
2021/03/17 01:39:23;;;;;;;30.65;16.85;;;;;;;1.90;82.23;98423.31;3549738;27;20051;-58
2021/03/17 01:41:05;;;;;;;30.90;16.88;;;;;;;1.92;82.12;98422.53;3554040;27;20073;-58
2021/03/17 01:42:46;;;;;;;30.60;17.10;;;;;;;1.93;82.34;98418.28;3549876;27;20050;-58
2021/03/17 01:44:28;;;;;;;28.15;16.92;;;;;;;1.93;81.85;98418.28;3551436;27;20457;-58
2021/03/17 01:46:10;;;;;;;37.60;17.67;;;;;;;1.93;81.85;98406.34;3551874;27;20077;-59
2021/03/17 01:47:53;;;;;;;29.35;15.65;;;;;;;1.94;82.15;98409.81;3552173;27;20054;-58
2021/03/17 01:49:34;;;;;;;32.22;15.75;;;;;;;1.93;82.27;98411.47;3553270;27;20510;-58
2021/03/17 01:51:16;;;;;;;29.63;15.25;;;;;;;1.93;82.18;98410.63;3551946;27;20043;-58
2021/03/17 01:53:01;;;;;;;27.00;15.38;;;;;;;1.92;82.14;98408.91;3553396;27;20050;-58
2021/03/17 01:54:43;;;;;;;25.05;15.07;;;;;;;1.90;82.13;98406.28;3553706;27;20058;-58
2021/03/17 01:56:24;;;;;;;26.23;14.43;;;;;;;1.90;81.81;98407.97;3551378;27;20177;-58
2021/03/17 01:58:06;;;;;;;27.63;13.70;;;;;;;1.90;81.62;98415.63;3551820;27;20042;-58
2021/03/17 01:59:47;;;;;;;23.23;14.52;;;;;;;1.89;82.04;98412.22;3549934;27;20171;-58
2021/03/17 02:01:29;;;;;;;29.13;15.13;;;;;;;1.88;81.84;98407.06;3539080;28;20123;-57
2021/03/17 02:03:12;;;;;;;31.77;14.77;;;;;;;1.88;81.68;98409.63;3548306;27;20543;-58
2021/03/17 02:04:53;;;;;;;27.20;14.60;;;;;;;1.88;81.98;98413.06;3553265;27;20535;-57
2021/03/17 02:06:35;;;;;;;31.15;15.35;;;;;;;1.88;81.40;98409.63;3548462;27;20046;-58
2021/03/17 02:08:17;;;;;;;23.50;14.18;;;;;;;1.87;81.66;98413.88;3551346;27;20058;-57
2021/03/17 02:10:00;;;;;;;27.85;14.38;;;;;;;1.86;81.71;98407.00;3553140;27;20050;-58
2021/03/17 02:11:47;;;;;;;24.25;13.82;;;;;;;1.87;81.72;98415.56;3551662;27;20051;-58
2021/03/17 02:13:41;;;;;;;24.70;14.20;;;;;;;1.86;81.81;98413.81;3551681;27;20884;-57
2021/03/17 02:15:48;;;;;;;23.73;13.75;;;;;;;1.86;82.07;98418.94;3550541;27;20460;-58
2021/03/17 02:17:34;;;;;;;29.95;14.50;;;;;;;1.87;81.75;98415.56;3548254;27;20050;-58
2021/03/17 02:19:46;;;;;;;27.45;14.02;;;;;;;1.86;81.77;98412.13;3553142;27;20058;-58
2021/03/17 02:22:17;;;;;;;22.92;13.73;;;;;;;1.85;81.76;98410.41;3552141;27;20475;-58
2021/03/17 02:24:08;;;;;;;23.80;13.60;;;;;;;1.86;81.77;98411.28;3551771;27;20042;-58
2021/03/17 02:26:35;;;;;;;27.45;13.77;;;;;;;1.84;81.00;98408.66;3552499;27;20507;-58
2021/03/17 02:28:31;;;;;;;25.17;13.55;;;;;;;1.85;81.03;98409.56;3539452;28;20075;-58
2021/03/17 02:30:27;;;;;;;23.83;13.30;;;;;;;1.84;81.03;98408.66;3548558;27;20075;-58
2021/03/17 02:32:16;;;;;;;26.23;13.95;;;;;;;1.83;81.14;98412.06;3551976;27;20054;-57
2021/03/17 02:34:04;;;;;;;35.08;15.40;;;;;;;1.82;81.41;98404.34;3552879;27;20047;-57
2021/03/17 02:35:50;;;;;;;22.98;14.55;;;;;;;1.82;81.33;98404.34;3549269;27;20157;-58
2021/03/17 02:37:34;;;;;;;24.58;13.60;;;;;;;1.81;81.20;98405.16;3553283;27;20047;-58
2021/03/17 02:39:20;;;;;;;35.40;14.20;;;;;;;1.80;81.07;98409.41;3548894;27;20065;-58
2021/03/17 02:41:01;;;;;;;23.20;13.50;;;;;;;1.79;80.94;98412.78;3550671;27;20051;-58
2021/03/17 02:42:48;;;;;;;25.85;13.85;;;;;;;1.78;80.75;98410.19;3551385;27;20050;-58
2021/03/17 02:44:29;;;;;;;25.45;13.98;;;;;;;1.79;80.90;98410.22;3551585;27;20042;-58
2021/03/17 02:46:14;;;;;;;27.50;13.63;;;;;;;1.77;80.70;98406.78;3553226;27;20054;-58
2021/03/17 02:48:02;;;;;;;22.30;13.73;;;;;;;1.77;80.63;98411.03;3549020;27;20567;-58
2021/03/17 02:49:47;;;;;;;23.15;14.32;;;;;;;1.75;80.56;98406.72;3550652;27;20047;-58
2021/03/17 02:51:33;;;;;;;30.08;14.80;;;;;;;1.77;80.63;98398.25;3550950;27;20091;-59
2021/03/17 02:53:17;;;;;;;23.27;13.38;;;;;;;1.75;81.04;98401.59;3549305;27;20047;-58
2021/03/17 02:55:00;;;;;;;;;;;;;;;1.76;81.00;98397.38;3553425;27;20111;-59
2021/03/17 02:56:45;;;;;;;27.88;13.15;;;;;;;1.75;81.25;98399.06;3548996;27;19927;-58
2021/03/17 02:58:28;;;;;;;28.38;14.70;;;;;;;1.74;80.97;98402.44;3552318;27;20053;-58
2021/03/17 03:00:13;;;;;;;23.48;13.20;;;;;;;1.75;81.20;98400.75;3552076;27;20111;-58
2021/03/17 03:01:56;;;;;;;22.27;13.73;;;;;;;1.76;81.44;98399.94;3536238;27;20544;-58
2021/03/17 03:03:39;;;;;;;22.50;13.45;;;;;;;1.76;80.91;98392.28;3549816;27;20054;-58
2021/03/17 03:05:22;;;;;;;26.52;13.77;;;;;;;1.77;80.78;98403.34;3548290;27;20039;-58
2021/03/17 03:07:04;;;;;;;29.67;14.80;;;;;;;1.74;80.63;98394.78;3552311;27;20050;-58
2021/03/17 03:08:46;;;;;;;26.20;14.20;;;;;;;1.75;80.85;98395.63;3549179;27;20051;-58
2021/03/17 03:10:30;;;;;;;24.27;14.35;;;;;;;1.74;80.40;98399.00;3550536;27;20042;-58
2021/03/17 03:12:13;;;;;;;31.05;13.77;;;;;;;1.74;80.05;98399.91;3550912;27;20058;-58
2021/03/17 03:13:56;;;;;;;34.38;14.20;;;;;;;1.74;79.87;98399.00;3548243;27;20046;-58
2021/03/17 03:15:38;;;;;;;27.73;14.32;;;;;;;1.74;80.06;98399.91;3552483;27;20046;-58
2021/03/17 03:17:20;;;;;;;24.20;13.02;;;;;;;1.75;80.05;98400.75;3548710;27;20047;-58
2021/03/17 03:19:05;;;;;;;26.48;13.88;;;;;;;1.77;80.36;98400.78;3552603;27;20055;-58
2021/03/17 03:20:48;;;;;;;31.67;14.02;;;;;;;1.76;80.37;98405.06;3549291;27;20138;-58
2021/03/17 03:22:30;;;;;;;27.02;13.73;;;;;;;1.77;80.00;98403.34;3547595;27;20043;-58
2021/03/17 03:24:13;;;;;;;27.20;13.77;;;;;;;1.75;80.12;98406.72;3553198;27;20054;-58
2021/03/17 03:25:57;;;;;;;27.77;13.17;;;;;;;1.76;80.02;98394.81;3548992;27;20123;-58
2021/03/17 03:27:40;;;;;;;33.22;14.07;;;;;;;1.76;80.00;98394.81;3552209;27;20303;-58
2021/03/17 03:29:21;;;;;;;28.95;14.57;;;;;;;1.75;80.05;98391.38;3550083;27;20054;-58
2021/03/17 03:31:02;;;;;;;30.15;14.30;;;;;;;1.77;80.24;98395.69;3552113;27;20057;-58
2021/03/17 03:32:45;;;;;;;27.98;14.18;;;;;;;1.77;80.58;98393.13;3551323;27;20043;-58
2021/03/17 03:34:26;;;;;;;33.85;15.20;;;;;;;1.77;80.54;98398.25;3551387;27;20089;-58
2021/03/17 03:36:08;;;;;;;32.05;15.15;;;;;;;1.78;80.17;98392.28;3552099;27;20047;-58
2021/03/17 03:37:50;;;;;;;34.17;14.75;;;;;;;1.77;80.43;98396.53;3551172;27;20046;-59
2021/03/17 03:39:32;;;;;;;22.95;12.68;;;;;;;1.78;80.39;98395.72;3552307;27;20065;-58
2021/03/17 03:41:14;;;;;;;32.05;14.73;;;;;;;1.77;80.15;98399.09;3550954;27;20054;-58
2021/03/17 03:42:55;;;;;;;28.27;13.95;;;;;;;1.78;80.04;98403.41;3551895;27;20050;-58
2021/03/17 03:44:37;;;;;;;30.38;15.27;;;;;;;1.78;80.07;98400.84;3549153;27;20043;-58
2021/03/17 03:46:18;;;;;;;36.97;15.18;;;;;;;1.78;80.28;98405.06;3549223;27;20046;-58
2021/03/17 03:48:02;;;;;;;34.22;15.90;;;;;;;1.78;80.13;98405.06;3552070;27;20054;-58
2021/03/17 03:49:43;;;;;;;37.60;14.85;;;;;;;1.77;80.23;98405.91;3548638;27;20046;-58
2021/03/17 03:51:25;;;;;;;30.27;14.18;;;;;;;1.77;80.23;98395.69;3552279;27;20521;-58
2021/03/17 03:53:14;;;;;;;33.42;15.98;;;;;;;1.76;80.40;98402.50;3550895;27;20495;-58
2021/03/17 03:55:01;;;;;;;27.70;14.88;;;;;;;1.75;80.09;98393.94;3550779;27;20388;-58
2021/03/17 03:56:51;;;;;;;25.67;14.52;;;;;;;1.76;80.01;98399.94;3552261;27;20046;-58
2021/03/17 03:58:38;;;;;;;30.67;13.65;;;;;;;1.76;80.27;98394.81;3551757;27;20054;-58
2021/03/17 04:00:23;;;;;;;26.67;14.25;;;;;;;1.75;80.56;98405.88;3552490;27;20061;-58
2021/03/17 04:02:08;;;;;;;30.38;14.82;;;;;;;1.75;80.35;98395.63;3548392;27;20046;-58
2021/03/17 04:03:54;;;;;;;38.28;16.80;;;;;;;1.76;80.27;98399.94;3550711;27;20074;-58
2021/03/17 04:05:39;;;;;;;35.05;17.65;;;;;;;1.75;80.02;98387.97;3550194;27;20061;-58
2021/03/17 04:07:23;;;;;;;30.77;16.88;;;;;;;1.76;80.44;98389.72;3550823;27;20050;-58
2021/03/17 04:09:06;;;;;;;31.50;15.48;;;;;;;1.75;80.20;98393.94;3552116;27;20423;-58
2021/03/17 04:10:54;;;;;;;34.85;16.88;;;;;;;1.76;80.44;98389.72;3548370;27;20143;-58
2021/03/17 04:12:38;;;;;;;32.42;16.13;;;;;;;1.76;80.26;98389.72;3551539;27;20051;-58
2021/03/17 04:14:21;;;;;;;32.47;16.60;;;;;;;1.77;80.08;98391.44;3548563;27;20051;-58
2021/03/17 04:16:11;;;;;;;34.70;15.77;;;;;;;1.77;80.39;98388.00;3549663;27;20042;-59
2021/03/17 04:17:57;;;;;;;30.90;15.38;;;;;;;1.78;80.32;98388.06;3554219;27;20051;-58
2021/03/17 04:19:41;;;;;;;36.55;14.73;;;;;;;1.75;80.31;98383.72;3550740;27;20042;-58
2021/03/17 04:21:26;;;;;;;35.45;15.70;;;;;;;1.77;80.37;98391.44;3553557;27;20474;-58
2021/03/17 04:23:10;;;;;;;40.70;16.63;;;;;;;1.77;80.27;98383.75;3551343;27;20043;-58
2021/03/17 04:24:52;;;;;;;25.60;13.68;;;;;;;1.78;80.12;98384.63;3553131;27;20058;-58
2021/03/17 04:26:35;;;;;;;31.95;15.13;;;;;;;1.79;80.41;98386.34;3553613;27;20499;-58
2021/03/17 04:28:20;;;;;;;30.17;14.70;;;;;;;1.80;80.65;98385.56;3550508;27;20049;-58
2021/03/17 04:30:05;;;;;;;29.05;14.82;;;;;;;1.80;80.37;98385.56;3554269;27;20051;-58
2021/03/17 04:31:48;;;;;;;28.80;13.93;;;;;;;1.80;80.38;98380.44;3550378;27;20476;-58
2021/03/17 04:33:30;;;;;;;30.63;14.20;;;;;;;1.81;80.34;98383.00;3552637;27;20493;-58
2021/03/17 04:35:14;;;;;;;35.50;15.30;;;;;;;1.82;80.27;98389.00;3554469;27;20149;-58
2021/03/17 04:36:56;;;;;;;29.40;15.88;;;;;;;1.84;80.06;98387.34;3550711;27;20096;-58
2021/03/17 04:38:39;;;;;;;28.08;15.07;;;;;;;1.84;79.92;98384.81;3554010;27;20126;-58
2021/03/17 04:40:22;;;;;;;32.08;14.27;;;;;;;1.85;80.05;98384.84;3550286;27;20046;-58
2021/03/17 04:42:05;;;;;;;31.88;15.32;;;;;;;1.85;80.22;98379.72;3553900;27;20428;-58
2021/03/17 04:43:47;;;;;;;40.17;15.70;;;;;;;1.85;80.22;98378.88;3553785;27;20099;-58
2021/03/17 04:45:28;;;;;;;28.27;14.75;;;;;;;1.86;79.90;98378.88;3551720;27;20055;-58
2021/03/17 04:47:12;;;;;;;28.58;14.15;;;;;;;1.87;79.82;98372.97;3552147;27;20472;-58
2021/03/17 04:48:54;;;;;;;23.40;12.07;;;;;;;1.88;79.67;98373.81;3552604;27;20046;-58
2021/03/17 04:50:38;;;;;;;23.92;14.07;;;;;;;1.89;80.03;98373.88;3539651;28;20044;-58
2021/03/17 04:52:20;;;;;;;;;;;;;;;1.89;80.01;98371.31;3549423;27;20043;-58
2021/03/17 04:54:02;;;;;;;31.25;14.77;;;;;;;1.89;79.94;98367.91;3553278;27;19992;-58
2021/03/17 04:55:44;;;;;;;30.20;14.95;;;;;;;1.92;79.55;98368.00;3550576;27;20054;-58
2021/03/17 04:57:29;;;;;;;33.10;14.82;;;;;;;1.93;79.81;98373.13;3551539;27;20071;-58
2021/03/17 04:59:16;;;;;;;32.22;13.82;;;;;;;1.94;79.86;98371.44;3552061;27;20345;-58
2021/03/17 05:00:59;;;;;;;28.90;14.20;;;;;;;1.94;79.65;98374.00;3550352;27;20042;-58
2021/03/17 05:02:45;;;;;;;32.05;14.32;;;;;;;1.95;80.01;98373.16;3553593;27;20050;-58
2021/03/17 05:04:27;;;;;;;30.45;16.00;;;;;;;1.97;79.79;98375.75;3552250;27;20520;-58
2021/03/17 05:06:10;;;;;;;27.05;14.43;;;;;;;1.98;79.61;98374.94;3552206;27;20078;-58
2021/03/17 05:07:53;;;;;;;35.97;15.27;;;;;;;1.99;79.92;98366.44;3551154;27;20062;-58
2021/03/17 05:09:35;;;;;;;30.08;16.20;;;;;;;2.00;79.73;98366.47;3551127;27;20494;-58
2021/03/17 05:11:17;;;;;;;31.15;14.07;;;;;;;2.01;79.99;98367.38;3553759;27;20058;-58
2021/03/17 05:12:59;;;;;;;30.00;13.68;;;;;;;2.01;79.86;98365.66;3548473;27;20170;-58
2021/03/17 05:14:41;;;;;;;28.83;14.60;;;;;;;2.03;79.71;98368.25;3553480;27;20560;-58
2021/03/17 05:16:24;;;;;;;33.88;14.95;;;;;;;2.03;79.78;98369.13;3550885;27;20043;-58
2021/03/17 05:18:07;;;;;;;30.80;14.63;;;;;;;2.05;79.61;98366.59;3551493;27;20046;-58
2021/03/17 05:19:49;;;;;;;31.02;14.40;;;;;;;2.05;79.71;98370.03;3552184;27;20162;-58
2021/03/17 05:21:32;;;;;;;30.45;15.18;;;;;;;2.07;79.57;98372.63;3552462;27;20065;-58
2021/03/17 05:23:14;;;;;;;29.50;15.15;;;;;;;2.07;79.49;98368.38;3539134;28;20051;-58
2021/03/17 05:24:57;;;;;;;23.80;13.85;;;;;;;2.09;79.56;98373.53;3546482;27;20050;-58
2021/03/17 05:26:39;;;;;;;26.92;13.75;;;;;;;2.11;79.09;98374.44;3553265;27;20046;-58
2021/03/17 05:28:21;;;;;;;24.27;13.63;;;;;;;2.12;78.88;98378.72;3549628;27;20415;-58
2021/03/17 05:30:05;;;;;;;34.83;16.73;;;;;;;2.12;79.02;98371.06;3551114;27;20051;-58
2021/03/17 05:31:48;;;;;;;27.33;13.80;;;;;;;2.14;79.08;98382.19;3552452;27;20042;-59
2021/03/17 05:33:30;;;;;;;28.52;14.43;;;;;;;2.16;79.08;98374.56;3550795;27;20480;-58
2021/03/17 05:35:12;;;;;;;28.58;14.60;;;;;;;2.17;78.92;98373.75;3553538;27;20134;-58
2021/03/17 05:36:54;;;;;;;25.75;14.07;;;;;;;2.19;78.93;98377.22;3552153;27;20058;-58
2021/03/17 05:38:35;;;;;;;23.58;13.57;;;;;;;2.20;79.04;98371.25;3552789;27;20057;-58
2021/03/17 05:40:18;;;;;;;30.63;14.05;;;;;;;2.21;78.60;98378.09;3550005;27;20042;-58
2021/03/17 05:41:59;;;;;;;28.75;14.25;;;;;;;2.22;78.72;98374.69;3550589;27;20054;-58
2021/03/17 05:43:41;;;;;;;30.45;14.93;;;;;;;2.23;78.46;98381.56;3552890;27;20055;-58
2021/03/17 05:45:23;;;;;;;27.58;14.23;;;;;;;2.24;78.55;98381.59;3550591;27;20491;-58
2021/03/17 05:47:21;;;;;;;27.75;13.73;;;;;;;2.26;78.55;98379.09;3553116;27;20046;-58
2021/03/17 05:49:03;;;;;;;25.15;12.85;;;;;;;2.26;78.83;98381.66;3549698;27;20058;-58
2021/03/17 05:50:45;;;;;;;26.80;13.55;;;;;;;2.29;78.49;98379.19;3551010;27;20464;-58
2021/03/17 05:52:27;;;;;;;27.23;13.13;;;;;;;2.30;78.75;98375.78;3551806;27;20051;-58
2021/03/17 05:54:10;;;;;;;30.60;13.32;;;;;;;2.31;78.51;98380.94;3551997;27;20046;-58
2021/03/17 05:55:53;;;;;;;22.48;13.52;;;;;;;2.33;78.35;98386.94;3549989;27;20051;-58
2021/03/17 05:57:36;;;;;;;24.50;13.15;;;;;;;2.35;78.02;98387.00;3549648;27;20042;-58
2021/03/17 05:59:18;;;;;;;27.35;13.60;;;;;;;2.36;77.82;98386.19;3552336;27;20058;-58
2021/03/17 06:00:59;;;;;;;26.95;13.13;;;;;;;2.38;78.08;98391.31;3549865;27;20047;-58
2021/03/17 06:02:41;;;;;;;27.85;12.43;;;;;;;2.39;78.10;98391.34;3551177;27;20057;-58
2021/03/17 06:04:25;;;;;;;35.13;13.20;;;;;;;2.39;77.71;98386.22;3550689;27;20115;-58
2021/03/17 06:06:07;;;;;;;28.80;12.20;;;;;;;2.42;77.83;98390.59;3551742;27;20050;-58
2021/03/17 06:07:58;;;;;;;25.35;12.48;;;;;;;2.43;78.12;98390.63;3552947;27;20050;-58
2021/03/17 06:09:39;;;;;;;24.30;12.23;;;;;;;2.46;77.72;98389.81;3551649;27;20114;-58
2021/03/17 06:11:24;;;;;;;22.58;11.65;;;;;;;2.45;77.90;98386.41;3551807;27;20503;-58
2021/03/17 06:13:08;;;;;;;24.20;11.77;;;;;;;2.46;77.58;98395.78;3549587;27;20050;-58
2021/03/17 06:14:51;;;;;;;29.73;13.60;;;;;;;2.47;77.07;98392.41;3550458;27;20411;-58
2021/03/17 06:16:34;;;;;;;27.13;12.60;;;;;;;2.47;77.70;98392.41;3552014;27;20077;-58
2021/03/17 06:18:22;;;;;;;24.57;12.70;;;;;;;2.50;77.45;98394.19;3549307;27;20094;-58
2021/03/17 06:20:06;;;;;;;26.38;13.48;;;;;;;2.50;77.39;98384.84;3552427;27;20311;-58
2021/03/17 06:21:49;;;;;;;;;;;;;;;2.51;77.21;98383.97;3549758;27;20430;-58
2021/03/17 06:23:31;;;;;;;23.13;13.10;;;;;;;2.54;77.38;98390.88;3551665;27;19976;-58
2021/03/17 06:25:14;;;;;;;29.50;12.05;;;;;;;2.54;77.48;98378.09;3551257;27;20111;-58
2021/03/17 06:26:57;;;;;;;24.58;12.10;;;;;;;2.57;77.35;98372.16;3549112;27;20467;-58
2021/03/17 06:28:39;;;;;;;26.17;13.70;;;;;;;2.59;77.07;98381.63;3552606;27;20057;-58
2021/03/17 06:30:22;;;;;;;28.35;13.88;;;;;;;2.60;76.85;98379.94;3549211;27;20042;-58
2021/03/17 06:32:04;;;;;;;26.90;12.77;;;;;;;2.60;76.95;98377.38;3552191;27;20393;-58
2021/03/17 06:33:45;;;;;;;27.85;12.88;;;;;;;2.61;77.17;98377.41;3552020;27;20522;-58
2021/03/17 06:35:27;;;;;;;26.55;12.43;;;;;;;2.62;76.91;98379.13;3549490;27;20127;-58
2021/03/17 06:37:10;;;;;;;25.88;13.35;;;;;;;2.64;76.90;98376.59;3551658;27;20042;-57
2021/03/17 06:39:05;;;;;;;23.02;11.85;;;;;;;2.65;77.00;98374.09;3548596;27;20111;-58
2021/03/17 06:40:57;;;;;;;28.35;11.88;;;;;;;2.68;77.26;98374.16;3552224;27;20544;-58
2021/03/17 06:42:40;;;;;;;28.63;12.95;;;;;;;2.72;76.95;98366.56;3549592;27;20046;-58
2021/03/17 06:44:24;;;;;;;32.30;13.73;;;;;;;2.75;76.80;98369.19;3549165;27;20047;-58
2021/03/17 06:46:07;;;;;;;32.10;12.73;;;;;;;2.77;76.55;98376.09;3552654;27;20051;-58
2021/03/17 06:48:23;;;;;;;21.83;12.48;;;;;;;2.81;76.28;98374.47;3549915;27;20042;-58
2021/03/17 06:50:08;;;;;;;23.42;11.40;;;;;;;2.82;76.51;98374.50;3550612;27;20042;-58
2021/03/17 06:51:49;;;;;;;20.98;11.05;;;;;;;2.85;76.62;98372.00;3552037;27;20046;-58
2021/03/17 06:53:40;;;;;;;17.15;10.13;;;;;;;2.88;76.41;98371.22;3549025;27;20044;-58
2021/03/17 06:55:23;;;;;;;27.17;11.70;;;;;;;2.92;76.54;98373.00;3538117;28;20050;-58
2021/03/17 06:57:27;;;;;;;28.83;13.90;;;;;;;2.96;76.09;98377.38;3546795;27;20050;-58
2021/03/17 06:59:11;;;;;;;19.40;11.10;;;;;;;2.99;76.29;98374.88;3550040;27;20567;-58
2021/03/17 07:00:53;;;;;;;24.80;12.10;;;;;;;3.01;75.32;98374.91;3550410;27;20042;-57
2021/03/17 07:02:34;;;;;;;28.58;12.68;;;;;;;3.01;75.29;98380.91;3548687;27;20042;-57
2021/03/17 07:04:18;;;;;;;21.92;11.88;;;;;;;3.03;75.07;98383.47;3552196;27;20050;-58
2021/03/17 07:06:09;;;;;;;25.92;12.75;;;;;;;3.04;75.10;98388.66;3548684;27;20050;-58
2021/03/17 07:07:51;;;;;;;27.17;12.18;;;;;;;3.04;75.26;98388.66;3550194;27;20506;-58
2021/03/17 07:09:33;;;;;;;21.98;12.05;;;;;;;3.05;74.90;98387.81;3550712;27;20043;-57
2021/03/17 07:11:22;;;;;;;27.33;14.07;;;;;;;3.06;75.11;98393.81;3548672;27;20043;-57
2021/03/17 07:13:04;;;;;;;28.25;13.85;;;;;;;3.06;74.91;98389.53;3537344;27;20100;-57
2021/03/17 07:14:46;;;;;;;29.33;12.77;;;;;;;3.08;74.98;98382.78;3547263;27;20558;-57
2021/03/17 07:16:30;;;;;;;27.77;13.00;;;;;;;3.11;75.38;98384.53;3552054;27;20054;-58
2021/03/17 07:18:31;;;;;;;26.17;12.27;;;;;;;3.14;74.88;98381.19;3550449;27;20057;-58
2021/03/17 07:20:14;;;;;;;30.00;12.55;;;;;;;3.16;74.44;98380.38;3548370;27;20138;-57
2021/03/17 07:22:03;;;;;;;26.90;12.30;;;;;;;3.18;74.41;98373.59;3538039;28;20103;-58
2021/03/17 07:23:45;;;;;;;25.50;12.43;;;;;;;3.21;74.73;98370.25;3546115;27;20050;-57
2021/03/17 07:25:27;;;;;;;35.65;13.85;;;;;;;3.22;74.18;98365.16;3551824;27;20051;-57
2021/03/17 07:27:18;;;;;;;28.98;13.82;;;;;;;3.25;74.42;98367.75;3549750;27;20050;-57
2021/03/17 07:29:13;;;;;;;29.17;14.18;;;;;;;3.27;73.70;98378.03;3551274;27;20075;-57
2021/03/17 07:31:12;;;;;;;31.33;14.00;;;;;;;3.30;74.00;98374.69;3552208;27;20050;-57
2021/03/17 07:32:56;;;;;;;28.25;13.57;;;;;;;3.31;73.19;98372.16;3548725;27;20058;-57
2021/03/17 07:34:37;;;;;;;29.00;14.30;;;;;;;3.34;73.58;98374.78;3550685;27;20046;-58
2021/03/17 07:36:34;;;;;;;39.40;13.63;;;;;;;3.35;73.93;98376.53;3550648;27;20055;-58
2021/03/17 07:38:16;;;;;;;27.98;14.15;;;;;;;3.37;73.56;98372.28;3548283;27;20074;-58
2021/03/17 07:39:58;;;;;;;33.58;13.50;;;;;;;3.38;73.87;98362.91;3552147;27;20054;-58
2021/03/17 07:41:39;;;;;;;31.05;14.20;;;;;;;3.44;73.45;98373.28;3550737;27;20054;-58
2021/03/17 07:43:25;;;;;;;30.02;13.68;;;;;;;3.47;73.95;98368.22;3550856;27;20051;-58
2021/03/17 07:45:08;;;;;;;29.45;13.68;;;;;;;3.52;73.71;98373.44;3549487;27;20108;-58
2021/03/17 07:46:53;;;;;;;32.23;13.70;;;;;;;3.54;72.86;98374.34;3549154;27;20506;-58
2021/03/17 07:48:52;;;;;;;24.65;13.95;;;;;;;3.57;72.90;98369.28;3537759;28;20294;-57
2021/03/17 07:50:34;;;;;;;29.55;14.00;;;;;;;3.61;73.40;98379.63;3547402;27;20043;-57
2021/03/17 07:52:18;;;;;;;33.35;13.55;;;;;;;3.65;73.30;98376.28;3553142;27;20049;-57
2021/03/17 07:54:02;;;;;;;28.83;14.48;;;;;;;3.70;72.89;98383.19;3554006;27;20141;-58
2021/03/17 07:55:46;;;;;;;28.27;13.77;;;;;;;3.72;72.26;98376.41;3552397;27;20051;-58
2021/03/17 07:57:29;;;;;;;36.08;13.65;;;;;;;3.74;72.21;98377.31;3554516;27;20078;-58
2021/03/17 07:59:12;;;;;;;29.05;13.13;;;;;;;3.76;71.92;98373.06;3551012;27;20042;-58
2021/03/17 08:00:55;;;;;;;30.50;14.93;;;;;;;3.76;71.75;98375.66;3554771;27;20050;-57
2021/03/17 08:02:38;;;;;;;;;;;;;;;3.78;71.87;98374.81;3550548;27;20107;-57
2021/03/17 08:04:24;;;;;;;26.30;12.60;;;;;;;3.81;71.98;98376.59;3552107;27;19930;-57
2021/03/17 08:06:06;;;;;;;27.65;13.68;;;;;;;3.83;71.69;98372.38;3553805;27;20074;-56